Time;durP1;ratioP1;P1;durP2;ratioP2;P2;SDS_P1;SDS_P2;PMS_P1;PMS_P2;Temp;Humidity;BMP_temperature;BMP_pressure;BME280_temperature;BME280_humidity;BME280_pressure;Samples;Min_cycle;Max_cycle;Signal;HPM_P1;HPM_P2
2021/11/10 00:01:31;;;;;;;1.63;1.15;;;-1.40;77.30;;;;;;4993551;28;20026;-79
2021/11/10 00:03:56;;;;;;;1.98;1.40;;;-1.40;77.30;;;;;;4992439;28;20433;-80
2021/11/10 00:06:22;;;;;;;1.20;1.10;;;-1.30;77.60;;;;;;5005523;28;20029;-77
2021/11/10 00:08:48;;;;;;;1.65;1.35;;;-1.30;77.70;;;;;;5016355;28;20030;-80
2021/11/10 00:11:14;;;;;;;1.85;1.50;;;-1.20;77.50;;;;;;5015791;28;20018;-78
2021/11/10 00:13:40;;;;;;;1.58;1.30;;;-1.10;77.30;;;;;;5011297;28;20041;-76
2021/11/10 00:16:05;;;;;;;1.58;1.40;;;-1.10;77.30;;;;;;5007266;28;20037;-76
2021/11/10 00:18:31;;;;;;;2.03;1.23;;;-1.00;77.30;;;;;;5014195;28;20499;-75
2021/11/10 00:20:57;;;;;;;1.88;1.27;;;-1.00;77.30;;;;;;5015451;28;20045;-75
2021/11/10 00:23:23;;;;;;;2.42;1.80;;;-1.00;77.10;;;;;;5014976;28;20097;-77
2021/11/10 00:25:50;;;;;;;2.45;1.75;;;-0.90;77.10;;;;;;5016142;28;20153;-77
2021/11/10 00:28:16;;;;;;;4.60;1.50;;;-1.00;76.90;;;;;;5015366;28;20502;-76
2021/11/10 00:30:42;;;;;;;5.13;1.80;;;-0.90;76.90;;;;;;5007473;28;20048;-77
2021/11/10 00:33:08;;;;;;;2.65;1.60;;;-0.90;77.30;;;;;;5015485;28;20526;-77
2021/11/10 00:35:34;;;;;;;1.95;1.38;;;-1.00;76.40;;;;;;5015149;28;20395;-77
2021/11/10 00:38:00;;;;;;;1.83;1.20;;;-1.00;76.20;;;;;;5015339;28;20033;-77
2021/11/10 00:40:25;;;;;;;2.25;1.67;;;-1.10;76.40;;;;;;5015082;28;20514;-78
2021/11/10 00:42:51;;;;;;;2.50;1.42;;;-1.10;76.60;;;;;;5015159;28;20030;-79
2021/11/10 00:45:17;;;;;;;1.50;1.15;;;-1.10;76.80;;;;;;5015274;28;20018;-77
2021/11/10 00:47:43;;;;;;;2.35;1.40;;;-1.10;76.60;;;;;;5015302;28;20486;-76
2021/11/10 00:50:10;;;;;;;3.53;1.58;;;-1.10;76.70;;;;;;5015396;28;20045;-77
2021/11/10 00:52:36;;;;;;;1.98;1.35;;;-1.10;76.60;;;;;;5014958;28;20394;-77
2021/11/10 00:55:02;;;;;;;0.85;0.75;;;-1.10;76.30;;;;;;5015003;28;20025;-77
2021/11/10 00:57:28;;;;;;;2.67;1.67;;;-1.20;76.30;;;;;;5014585;28;20049;-76
2021/11/10 00:59:54;;;;;;;1.65;1.17;;;-1.20;76.30;;;;;;5015012;28;20084;-77
2021/11/10 01:02:20;;;;;;;5.25;1.55;;;-1.30;76.50;;;;;;5014736;28;20022;-78
2021/11/10 01:04:45;;;;;;;1.77;1.35;;;-1.40;76.60;;;;;;5014806;28;20030;-77
2021/11/10 01:07:11;;;;;;;1.40;1.25;;;-1.40;76.80;;;;;;5014366;28;20097;-76
2021/11/10 01:09:42;;;;;;;2.55;1.33;;;-1.40;77.10;;;;;;5014589;28;20511;-77
2021/11/10 01:12:10;;;;;;;2.63;1.48;;;-1.40;77.30;;;;;;5014672;28;20032;-77
2021/11/10 01:14:36;;;;;;;2.08;1.38;;;-1.40;77.50;;;;;;5014326;28;20104;-77
2021/11/10 01:17:02;;;;;;;0.73;0.70;;;-1.40;77.40;;;;;;5014644;28;20380;-77
2021/11/10 01:19:28;;;;;;;1.60;1.50;;;-1.40;77.40;;;;;;5013858;28;20041;-77
2021/11/10 01:21:54;;;;;;;1.25;1.00;;;-1.40;77.40;;;;;;5014696;28;20026;-77
2021/11/10 01:24:20;;;;;;;1.65;1.42;;;-1.50;77.50;;;;;;5014324;28;20109;-76
2021/11/10 01:26:46;;;;;;;2.08;1.02;;;-1.50;77.60;;;;;;4996666;28;20026;-76
2021/11/10 01:29:12;;;;;;;2.65;1.40;;;-1.50;77.70;;;;;;5014226;28;20113;-76
2021/11/10 01:31:38;;;;;;;2.90;1.83;;;-1.60;78.00;;;;;;5014097;28;20018;-76
2021/11/10 01:34:07;;;;;;;1.52;1.30;;;-1.60;78.20;;;;;;5014182;28;20033;-76
2021/11/10 01:36:35;;;;;;;2.83;1.33;;;-1.70;78.30;;;;;;5014170;28;20513;-75
2021/11/10 01:39:01;;;;;;;2.47;1.42;;;-1.80;78.70;;;;;;5014204;28;20022;-77
2021/11/10 01:41:27;;;;;;;2.40;1.55;;;-1.80;78.90;;;;;;5014016;28;20391;-77
2021/11/10 01:43:53;;;;;;;2.25;1.38;;;-1.80;79.20;;;;;;5014119;28;20034;-77
2021/11/10 01:46:19;;;;;;;6.65;2.45;;;-1.80;79.70;;;;;;5008764;28;20534;-76
2021/11/10 01:48:44;;;;;;;3.15;1.60;;;-1.80;79.80;;;;;;5015744;28;20030;-78
2021/11/10 01:51:10;;;;;;;2.47;1.60;;;-1.80;79.70;;;;;;5015746;28;20053;-78
2021/11/10 01:53:36;;;;;;;1.55;1.30;;;-1.80;79.90;;;;;;5013809;28;20029;-77
2021/11/10 01:56:03;;;;;;;2.00;1.30;;;-1.70;80.00;;;;;;5014075;28;20088;-78
2021/11/10 01:58:29;;;;;;;2.85;1.40;;;-1.70;80.00;;;;;;5013712;28;20133;-77
2021/11/10 02:00:55;;;;;;;2.28;1.48;;;-1.70;79.90;;;;;;5013576;28;20526;-76
2021/11/10 02:03:21;;;;;;;2.50;1.27;;;-1.60;80.00;;;;;;5012199;28;20036;-77
2021/11/10 02:05:47;;;;;;;2.97;1.67;;;-1.50;80.00;;;;;;5013858;28;20022;-77
2021/11/10 02:08:14;;;;;;;1.92;1.63;;;-1.50;79.90;;;;;;5013553;28;20021;-78
2021/11/10 02:10:40;;;;;;;3.33;1.55;;;-1.40;79.90;;;;;;5013444;28;20029;-77
2021/11/10 02:13:07;;;;;;;2.85;1.63;;;-1.40;79.80;;;;;;5013299;28;20491;-77
2021/11/10 02:15:33;;;;;;;2.38;1.35;;;-1.40;79.80;;;;;;5013254;28;20088;-77
2021/11/10 02:18:04;;;;;;;4.93;1.70;;;-1.40;79.80;;;;;;5013592;28;20045;-78
2021/11/10 02:20:33;;;;;;;2.03;1.33;;;-1.40;79.90;;;;;;5013421;28;20262;-78
2021/11/10 02:23:01;;;;;;;1.77;1.30;;;-1.40;79.90;;;;;;5013391;28;20076;-77
2021/11/10 02:25:29;;;;;;;3.58;1.50;;;-1.40;79.80;;;;;;5013538;28;20026;-77
2021/11/10 02:27:57;;;;;;;2.58;1.60;;;-1.40;79.90;;;;;;5013595;28;20491;-78
2021/11/10 02:30:23;;;;;;;2.40;1.40;;;-1.30;79.80;;;;;;5012721;28;20038;-77
2021/11/10 02:32:53;;;;;;;1.73;1.42;;;-1.30;79.70;;;;;;5014234;28;20030;-77
2021/11/10 02:35:24;;;;;;;7.78;1.73;;;-1.30;79.80;;;;;;5012794;28;20025;-78
2021/11/10 02:37:53;;;;;;;2.30;1.55;;;-1.30;79.80;;;;;;5014802;28;20018;-77
2021/11/10 02:40:20;;;;;;;2.00;1.10;;;-1.40;79.70;;;;;;5013407;28;20313;-78
2021/11/10 02:42:46;;;;;;;2.50;1.27;;;-1.40;79.80;;;;;;5013588;28;20022;-78
2021/11/10 02:45:13;;;;;;;1.83;1.42;;;-1.40;80.00;;;;;;5013480;28;20037;-79
2021/11/10 02:47:41;;;;;;;1.75;1.05;;;-1.40;80.10;;;;;;5013166;28;20025;-77
2021/11/10 02:50:07;;;;;;;3.15;1.30;;;-1.40;80.30;;;;;;5013195;28;20030;-77
2021/11/10 02:52:33;;;;;;;2.10;1.60;;;-1.40;80.50;;;;;;5013438;28;20030;-76
2021/11/10 02:54:59;;;;;;;1.30;1.20;;;-1.40;80.60;;;;;;5013675;28;20086;-77
2021/11/10 02:57:26;;;;;;;2.03;1.63;;;-1.40;80.70;;;;;;5013348;28;20212;-76
2021/11/10 02:59:52;;;;;;;1.42;1.23;;;-1.30;80.70;;;;;;5013210;28;20057;-78
2021/11/10 03:02:29;;;;;;;3.15;1.15;;;-1.40;80.60;;;;;;5011991;28;20084;-78
2021/11/10 03:04:56;;;;;;;1.85;1.48;;;-1.30;80.80;;;;;;5011210;28;20041;-77
2021/11/10 03:07:23;;;;;;;1.95;1.23;;;-1.40;80.80;;;;;;4995099;28;20026;-77
2021/11/10 03:09:49;;;;;;;2.28;1.70;;;-1.40;80.70;;;;;;5002067;28;20022;-77
2021/11/10 03:12:16;;;;;;;2.10;1.67;;;-1.40;80.80;;;;;;4998260;28;20030;-77
2021/11/10 03:14:44;;;;;;;1.70;1.27;;;-1.40;81.00;;;;;;5010371;28;20018;-77
2021/11/10 03:17:13;;;;;;;1.77;0.95;;;-1.40;80.90;;;;;;5000229;28;20022;-78
2021/11/10 03:19:40;;;;;;;2.50;1.17;;;-1.40;80.90;;;;;;5012511;28;20022;-77
2021/11/10 03:22:09;;;;;;;1.17;1.08;;;-1.50;81.00;;;;;;5007148;28;20022;-76
2021/11/10 03:24:35;;;;;;;12.70;2.47;;;-1.50;81.00;;;;;;5011385;28;20570;-77
2021/11/10 03:27:01;;;;;;;2.40;1.30;;;-1.40;81.20;;;;;;5012878;28;20105;-79
2021/11/10 03:29:29;;;;;;;2.42;1.52;;;-1.40;81.30;;;;;;5012706;28;20427;-78
2021/11/10 03:31:55;;;;;;;3.33;1.10;;;-1.30;81.30;;;;;;5012551;28;20110;-78
2021/11/10 03:34:21;;;;;;;2.40;1.48;;;-1.30;80.90;;;;;;5012771;28;20037;-77
2021/11/10 03:36:49;;;;;;;2.67;1.45;;;-1.30;80.70;;;;;;5029213;28;20018;-77
2021/11/10 03:39:16;;;;;;;1.80;1.38;;;-1.30;80.80;;;;;;5013120;28;20026;-77
2021/11/10 03:41:42;;;;;;;1.83;1.42;;;-1.30;81.60;;;;;;5013703;28;20562;-77
2021/11/10 03:44:09;;;;;;;3.75;1.70;;;-1.30;81.10;;;;;;5016586;28;20030;-76
2021/11/10 03:46:37;;;;;;;1.88;1.50;;;-1.30;81.30;;;;;;5016671;28;20022;-77
2021/11/10 03:49:03;;;;;;;3.38;1.40;;;-1.30;81.50;;;;;;5017019;28;20018;-77
2021/11/10 03:51:29;;;;;;;1.77;1.60;;;-1.30;81.40;;;;;;5017392;28;20026;-77
2021/11/10 03:53:56;;;;;;;2.75;1.65;;;-1.30;81.20;;;;;;5016548;28;20364;-79
2021/11/10 03:56:22;;;;;;;2.60;1.40;;;-1.30;81.20;;;;;;5015073;28;20109;-78
2021/11/10 03:58:48;;;;;;;2.63;1.48;;;-1.20;81.30;;;;;;5016081;28;20050;-76
2021/11/10 04:01:14;;;;;;;3.22;1.40;;;-1.20;81.20;;;;;;5016023;28;20022;-78
2021/11/10 04:03:41;;;;;;;1.45;1.35;;;-1.20;81.00;;;;;;5015873;28;20041;-78
2021/11/10 04:06:07;;;;;;;4.50;1.65;;;-1.20;80.90;;;;;;5016082;28;20026;-77
2021/11/10 04:08:33;;;;;;;2.00;1.50;;;-1.20;80.90;;;;;;5015979;28;20113;-77
2021/11/10 04:11:02;;;;;;;2.17;1.55;;;-1.30;81.10;;;;;;5015992;28;20528;-76
2021/11/10 04:13:29;;;;;;;1.83;1.70;;;-1.20;81.30;;;;;;5015794;28;20032;-78
2021/11/10 04:15:55;;;;;;;3.58;2.13;;;-1.20;81.40;;;;;;5015809;28;20030;-77
2021/11/10 04:18:21;;;;;;;6.30;1.88;;;-1.20;81.50;;;;;;5015690;28;20084;-77
2021/11/10 04:20:47;;;;;;;4.10;2.38;;;-1.10;81.50;;;;;;5015831;28;20022;-77
2021/11/10 04:23:14;;;;;;;4.03;2.08;;;-1.10;81.30;;;;;;5015666;28;20475;-78
2021/11/10 04:25:39;;;;;;;6.50;1.95;;;-1.10;81.30;;;;;;5015402;28;20037;-78
2021/11/10 04:28:05;;;;;;;3.83;2.10;;;-1.10;81.30;;;;;;5015917;28;20434;-78
2021/11/10 04:30:34;;;;;;;2.17;1.98;;;-1.00;81.40;;;;;;5015473;28;20454;-79
2021/11/10 04:33:00;;;;;;;3.28;1.52;;;-0.90;81.40;;;;;;5015656;28;20018;-78
2021/11/10 04:35:26;;;;;;;5.07;1.73;;;-0.90;81.10;;;;;;5015237;28;20391;-79
2021/11/10 04:37:51;;;;;;;4.63;1.90;;;-0.90;81.10;;;;;;5015997;28;20049;-78
2021/11/10 04:40:17;;;;;;;3.53;2.40;;;-0.80;81.80;;;;;;5016171;28;20050;-77
2021/11/10 04:42:43;;;;;;;4.25;2.20;;;-0.80;81.20;;;;;;5015493;28;20561;-78
2021/11/10 04:45:18;;;;;;;4.47;2.30;;;-0.80;81.00;;;;;;5015122;28;20026;-78
2021/11/10 04:47:45;;;;;;;4.63;2.08;;;-0.80;81.30;;;;;;5015153;28;20061;-77
2021/11/10 04:50:11;;;;;;;2.97;2.30;;;-0.70;81.20;;;;;;5015242;28;20022;-76
2021/11/10 04:52:37;;;;;;;2.47;1.83;;;-0.70;81.20;;;;;;5015716;28;20409;-78
2021/11/10 04:55:06;;;;;;;3.08;1.77;;;-0.80;81.00;;;;;;5014693;28;20372;-77
2021/11/10 04:57:32;;;;;;;2.97;2.58;;;-0.90;81.00;;;;;;5020228;28;20049;-79
2021/11/10 04:59:58;;;;;;;4.32;2.50;;;-0.90;81.30;;;;;;5023958;28;20030;-77
2021/11/10 05:02:23;;;;;;;3.75;2.13;;;-0.90;81.20;;;;;;5017677;28;20084;-75
2021/11/10 05:04:51;;;;;;;3.67;1.80;;;-0.80;81.20;;;;;;5014855;28;20038;-76
2021/11/10 05:07:18;;;;;;;4.82;2.25;;;-0.80;81.20;;;;;;5014764;28;20030;-76
2021/11/10 05:09:45;;;;;;;3.60;2.65;;;-0.80;81.30;;;;;;5014605;28;20053;-77
2021/11/10 05:12:11;;;;;;;3.70;2.17;;;-0.80;81.40;;;;;;5013409;28;20026;-77
2021/11/10 05:14:37;;;;;;;3.38;2.20;;;-0.70;81.40;;;;;;5014236;28;20026;-76
2021/11/10 05:17:03;;;;;;;3.50;2.33;;;-0.70;81.40;;;;;;5014385;28;20025;-78
2021/11/10 05:19:29;;;;;;;4.20;2.63;;;-0.60;81.30;;;;;;5014411;28;20556;-78
2021/11/10 05:21:55;;;;;;;2.75;2.22;;;-0.60;81.20;;;;;;5014122;28;20116;-77
2021/11/10 05:24:22;;;;;;;4.25;2.75;;;-0.60;81.00;;;;;;5014360;28;20122;-78
2021/11/10 05:26:48;;;;;;;7.22;3.03;;;-0.60;80.90;;;;;;5014700;28;20379;-77
2021/11/10 05:29:14;;;;;;;5.93;3.08;;;-0.50;81.00;;;;;;5014335;28;20140;-78
2021/11/10 05:31:40;;;;;;;4.75;2.53;;;-0.50;81.00;;;;;;5013973;28;20022;-79
2021/11/10 05:34:06;;;;;;;7.10;1.90;;;-0.40;80.90;;;;;;5013982;28;20022;-79
2021/11/10 05:36:32;;;;;;;4.95;2.00;;;-0.40;80.50;;;;;;5014037;28;20029;-81
2021/11/10 05:38:58;;;;;;;4.70;2.17;;;-0.40;80.50;;;;;;5014299;28;20054;-78
2021/11/10 05:41:24;;;;;;;4.68;2.20;;;-0.40;80.40;;;;;;5013992;28;20025;-80
2021/11/10 05:43:50;;;;;;;3.50;2.03;;;-0.40;80.20;;;;;;5013708;28;20041;-78
2021/11/10 05:46:15;;;;;;;2.83;1.70;;;-0.40;80.10;;;;;;5013509;28;20034;-77
2021/11/10 05:48:43;;;;;;;2.75;1.42;;;-0.40;79.90;;;;;;5013911;28;20026;-77
2021/11/10 05:51:09;;;;;;;12.38;1.92;;;-0.40;80.30;;;;;;5013891;28;20018;-78
2021/11/10 05:53:38;;;;;;;3.05;2.08;;;-0.40;79.70;;;;;;5014004;28;20069;-78
2021/11/10 05:56:04;;;;;;;2.45;2.13;;;-0.40;79.60;;;;;;5013329;28;20028;-78
2021/11/10 05:58:32;;;;;;;9.70;2.85;;;-0.30;79.60;;;;;;5014026;28;20042;-79
2021/11/10 06:00:59;;;;;;;5.75;2.60;;;-0.30;79.70;;;;;;5013565;28;20022;-80
2021/11/10 06:03:26;;;;;;;4.20;2.45;;;-0.20;79.80;;;;;;5013572;28;20034;-77
2021/11/10 06:05:53;;;;;;;4.47;2.37;;;-0.10;79.60;;;;;;5013811;28;20049;-78
2021/11/10 06:08:19;;;;;;;4.07;2.00;;;0.00;79.50;;;;;;5013552;28;20350;-78
2021/11/10 06:10:47;;;;;;;4.68;2.30;;;0.10;79.20;;;;;;5013317;28;20041;-77
2021/11/10 06:13:13;;;;;;;17.77;3.33;;;0.10;78.80;;;;;;5013256;28;20046;-78
2021/11/10 06:15:39;;;;;;;5.95;2.50;;;0.20;78.50;;;;;;4995795;28;20034;-77
2021/11/10 06:18:07;;;;;;;7.50;3.40;;;0.20;78.50;;;;;;5013242;28;20029;-76
2021/11/10 06:20:35;;;;;;;6.95;2.90;;;0.30;78.20;;;;;;5012938;28;20029;-78
2021/11/10 06:23:05;;;;;;;9.63;2.47;;;0.40;78.10;;;;;;5013667;28;20022;-77
2021/11/10 06:25:31;;;;;;;6.07;2.75;;;0.40;77.70;;;;;;5012333;28;20045;-78
2021/11/10 06:27:58;;;;;;;14.47;3.10;;;0.40;77.60;;;;;;5013503;28;20026;-77
2021/11/10 06:30:24;;;;;;;9.80;3.47;;;0.40;77.50;;;;;;5013403;28;20034;-78
2021/11/10 06:32:50;;;;;;;6.88;2.47;;;0.30;77.60;;;;;;5013013;28;20026;-78
2021/11/10 06:35:17;;;;;;;7.53;3.10;;;0.10;77.60;;;;;;5013583;28;20018;-76
2021/11/10 06:37:43;;;;;;;4.50;3.10;;;0.00;77.70;;;;;;5013363;28;20629;-78
2021/11/10 06:40:11;;;;;;;9.75;3.15;;;-0.10;78.00;;;;;;5013228;28;20037;-79
2021/11/10 06:42:37;;;;;;;11.05;2.85;;;-0.30;78.30;;;;;;5013187;28;20025;-80
2021/11/10 06:45:05;;;;;;;10.85;4.43;;;-0.40;78.60;;;;;;5012964;28;20060;-79
2021/11/10 06:47:31;;;;;;;3.58;2.70;;;-0.50;79.00;;;;;;5005989;28;20046;-78
2021/11/10 06:49:57;;;;;;;9.10;3.70;;;-0.60;79.20;;;;;;5004097;28;20022;-81
2021/11/10 06:52:23;;;;;;;5.50;3.20;;;-0.60;79.60;;;;;;5012857;28;20024;-80
2021/11/10 06:54:50;;;;;;;8.10;2.67;;;-0.60;79.80;;;;;;4993608;28;20127;-81
2021/11/10 06:57:17;;;;;;;7.38;3.40;;;-0.70;79.90;;;;;;4993167;28;20042;-81
2021/11/10 06:59:43;;;;;;;8.75;2.65;;;-0.60;80.10;;;;;;5011668;28;20034;-80
2021/11/10 07:02:09;;;;;;;8.18;3.63;;;-0.70;80.20;;;;;;4995089;28;20539;-78
2021/11/10 07:04:36;;;;;;;6.78;2.70;;;-0.70;80.30;;;;;;4995348;28;20399;-79
2021/11/10 07:07:02;;;;;;;4.82;2.60;;;-0.60;80.40;;;;;;4993009;28;20022;-78
2021/11/10 07:09:28;;;;;;;6.85;3.15;;;-0.60;80.40;;;;;;4993372;28;20101;-80
2021/11/10 07:11:54;;;;;;;6.00;3.30;;;-0.60;80.30;;;;;;4993886;28;20145;-80
2021/11/10 07:14:20;;;;;;;7.25;3.17;;;-0.50;80.40;;;;;;5012826;28;20025;-79
2021/11/10 07:16:46;;;;;;;12.23;3.17;;;-0.40;80.30;;;;;;5014398;28;20021;-78
2021/11/10 07:19:12;;;;;;;7.20;3.13;;;-0.40;80.30;;;;;;5017823;28;20021;-77
2021/11/10 07:21:38;;;;;;;6.13;3.08;;;-0.30;80.30;;;;;;5016758;28;20022;-78
2021/11/10 07:24:04;;;;;;;14.95;4.18;;;-0.40;80.20;;;;;;5016501;28;20443;-78
2021/11/10 07:26:30;;;;;;;4.18;3.03;;;-0.40;80.10;;;;;;5016510;28;20018;-79
2021/11/10 07:28:56;;;;;;;5.88;3.38;;;-0.40;80.30;;;;;;5016542;28;20025;-76
2021/11/10 07:31:22;;;;;;;6.63;3.95;;;-0.40;80.40;;;;;;4998853;28;20054;-79
2021/11/10 07:33:48;;;;;;;11.32;6.03;;;-0.40;80.50;;;;;;5016139;28;20029;-78
2021/11/10 07:36:14;;;;;;;8.55;4.22;;;-0.40;80.70;;;;;;5016439;28;20017;-78
2021/11/10 07:38:40;;;;;;;14.35;7.43;;;-0.40;80.70;;;;;;5016223;28;20025;-77
2021/11/10 07:41:16;;;;;;;10.60;4.63;;;-0.30;80.70;;;;;;5015483;28;20442;-78
2021/11/10 07:43:42;;;;;;;4.63;3.10;;;-0.30;80.60;;;;;;5016315;28;20483;-78
2021/11/10 07:46:16;;;;;;;6.47;3.80;;;-0.20;80.60;;;;;;5016242;28;20032;-78
2021/11/10 07:48:43;;;;;;;6.55;3.67;;;-0.20;80.50;;;;;;5018059;28;20030;-77
2021/11/10 07:51:09;;;;;;;;;;;-0.10;80.50;;;;;;5017270;28;20058;-80
2021/11/10 07:53:36;;;;;;;4.35;2.38;;;0.30;81.20;;;;;;5015835;28;19909;-78
2021/11/10 07:56:04;;;;;;;7.87;3.17;;;1.10;81.30;;;;;;5015842;28;20029;-79
2021/11/10 07:58:30;;;;;;;8.93;2.97;;;2.00;78.60;;;;;;5015857;28;20121;-78
2021/11/10 08:00:58;;;;;;;6.78;3.45;;;2.90;76.40;;;;;;5015518;28;20045;-80
2021/11/10 08:03:24;;;;;;;8.80;3.83;;;3.80;73.80;;;;;;5015887;28;20045;-79
2021/11/10 08:05:50;;;;;;;7.78;3.10;;;4.50;70.80;;;;;;5016104;28;20053;-80
2021/11/10 08:08:16;;;;;;;8.45;3.38;;;5.50;68.30;;;;;;5016247;28;20026;-79
2021/11/10 08:10:43;;;;;;;10.27;3.38;;;6.40;64.70;;;;;;5015566;28;20018;-79
2021/11/10 08:13:09;;;;;;;13.07;3.60;;;7.00;61.30;;;;;;5015981;28;20022;-79
2021/11/10 08:15:36;;;;;;;6.57;3.30;;;7.40;60.10;;;;;;5015674;28;20068;-81
2021/11/10 08:18:03;;;;;;;11.05;4.15;;;7.90;58.70;;;;;;5015580;28;20022;-79
2021/11/10 08:20:29;;;;;;;7.22;3.42;;;7.80;57.70;;;;;;4997645;28;20034;-80
2021/11/10 08:22:55;;;;;;;5.80;2.97;;;7.40;57.30;;;;;;5015539;28;20211;-80
2021/11/10 08:25:21;;;;;;;5.82;3.30;;;6.80;57.30;;;;;;4997720;28;20034;-78
2021/11/10 08:27:47;;;;;;;10.18;4.28;;;6.20;57.60;;;;;;5014784;28;20022;-79
2021/11/10 08:30:17;;;;;;;9.52;4.22;;;5.60;59.30;;;;;;5015010;28;20064;-79
2021/11/10 08:32:47;;;;;;;11.70;4.20;;;5.20;60.30;;;;;;5015252;28;20029;-79
2021/11/10 08:35:13;;;;;;;9.07;4.10;;;4.90;61.20;;;;;;5015190;28;20018;-79
2021/11/10 08:37:39;;;;;;;8.27;4.38;;;4.80;61.70;;;;;;5015190;28;20383;-78
2021/11/10 08:40:07;;;;;;;6.72;3.88;;;4.70;62.20;;;;;;5015320;28;20029;-80
2021/11/10 08:42:33;;;;;;;11.70;4.28;;;4.60;62.40;;;;;;5013722;28;20036;-79
2021/11/10 08:45:18;;;;;;;17.35;4.82;;;4.50;62.80;;;;;;5015163;28;20033;-78
2021/11/10 08:47:47;;;;;;;15.02;4.75;;;4.40;63.20;;;;;;5014935;28;20391;-79
2021/11/10 08:50:16;;;;;;;10.00;4.10;;;4.50;63.60;;;;;;5015524;28;20387;-80
2021/11/10 08:52:44;;;;;;;7.03;5.03;;;4.60;63.50;;;;;;5015820;28;20497;-80
2021/11/10 08:55:12;;;;;;;7.20;3.97;;;4.90;63.40;;;;;;5015881;28;20045;-80
2021/11/10 08:57:39;;;;;;;10.80;4.95;;;5.00;62.80;;;;;;5014938;28;20467;-78
2021/11/10 09:00:08;;;;;;;8.60;5.70;;;5.20;63.00;;;;;;5014796;28;20112;-81
2021/11/10 09:02:34;;;;;;;10.48;5.80;;;5.60;62.50;;;;;;4996933;28;20360;-78
2021/11/10 09:05:00;;;;;;;11.25;5.28;;;6.10;61.20;;;;;;5014430;28;20117;-79
2021/11/10 09:07:26;;;;;;;9.93;4.85;;;6.20;60.50;;;;;;5014956;28;20077;-79
2021/11/10 09:09:52;;;;;;;7.90;4.97;;;6.00;59.60;;;;;;5015659;28;20070;-78
2021/11/10 09:12:18;;;;;;;8.00;4.85;;;5.70;60.30;;;;;;5014771;28;20033;-79
2021/11/10 09:14:44;;;;;;;9.10;4.85;;;5.50;61.00;;;;;;5015008;28;20034;-78
2021/11/10 09:17:12;;;;;;;6.68;4.20;;;5.50;61.20;;;;;;5014489;28;20022;-79
2021/11/10 09:19:39;;;;;;;9.32;4.60;;;5.60;61.40;;;;;;5014455;28;20105;-79
2021/11/10 09:22:06;;;;;;;9.60;4.80;;;5.80;61.40;;;;;;5014477;28;20029;-80
2021/11/10 09:24:34;;;;;;;11.32;5.35;;;6.10;60.80;;;;;;5012928;28;20541;-81
2021/11/10 09:27:00;;;;;;;7.68;4.22;;;6.40;60.20;;;;;;5014458;28;20029;-81
2021/11/10 09:29:26;;;;;;;8.13;4.60;;;6.30;59.50;;;;;;5014235;28;20030;-80
2021/11/10 09:31:53;;;;;;;6.25;4.22;;;5.90;59.70;;;;;;5014484;28;20025;-80
2021/11/10 09:34:20;;;;;;;8.07;4.13;;;5.30;60.50;;;;;;5014447;28;20025;-80
2021/11/10 09:36:48;;;;;;;11.02;5.75;;;4.60;62.20;;;;;;5014101;28;20046;-80
2021/11/10 09:39:19;;;;;;;9.68;5.05;;;4.00;63.70;;;;;;5014370;28;20116;-81
2021/11/10 09:41:47;;;;;;;12.77;4.70;;;4.00;65.30;;;;;;5014791;28;20017;-79
2021/11/10 09:44:13;;;;;;;9.25;3.83;;;4.30;65.50;;;;;;5014866;28;20357;-79
2021/11/10 09:46:39;;;;;;;8.27;4.22;;;4.30;64.90;;;;;;5013675;28;20043;-80
2021/11/10 09:49:07;;;;;;;9.20;4.85;;;4.30;65.10;;;;;;5013686;28;20022;-79
2021/11/10 09:51:34;;;;;;;9.30;4.28;;;4.20;65.70;;;;;;5013686;28;20435;-79
2021/11/10 09:54:01;;;;;;;10.73;4.22;;;4.20;65.80;;;;;;5013716;28;20113;-79
2021/11/10 09:56:27;;;;;;;7.25;5.15;;;4.10;66.10;;;;;;5013629;28;20018;-78
2021/11/10 09:58:53;;;;;;;5.57;3.60;;;4.20;66.70;;;;;;5013722;28;20073;-78
2021/11/10 10:01:20;;;;;;;10.70;5.40;;;4.90;67.40;;;;;;5013521;28;20026;-79
2021/11/10 10:03:47;;;;;;;6.93;3.57;;;6.10;65.40;;;;;;4995970;28;20030;-80
2021/11/10 10:06:14;;;;;;;7.40;4.90;;;7.20;61.80;;;;;;5013439;28;20045;-79
2021/11/10 10:08:43;;;;;;;12.35;4.68;;;7.30;59.00;;;;;;5013724;28;20029;-80
2021/11/10 10:11:11;;;;;;;6.28;3.92;;;6.90;58.60;;;;;;4995871;28;20092;-79
2021/11/10 10:13:37;;;;;;;7.20;4.30;;;6.30;59.20;;;;;;5013482;28;20072;-77
2021/11/10 10:16:03;;;;;;;7.78;4.45;;;5.70;60.30;;;;;;5013455;28;20038;-79
2021/11/10 10:18:30;;;;;;;5.80;3.97;;;5.10;61.80;;;;;;5013430;28;20022;-79
2021/11/10 10:21:08;;;;;;;8.00;3.87;;;4.70;63.00;;;;;;5013323;28;20022;-78
2021/11/10 10:23:41;;;;;;;6.72;3.67;;;4.30;64.20;;;;;;5013232;28;20464;-79
2021/11/10 10:26:19;;;;;;;8.35;3.67;;;4.00;65.10;;;;;;5013675;28;20509;-79
2021/11/10 10:28:50;;;;;;;12.60;4.72;;;3.60;66.10;;;;;;5013032;28;20030;-80
2021/11/10 10:31:23;;;;;;;5.32;3.50;;;3.40;67.30;;;;;;5013321;28;20018;-79
2021/11/10 10:33:54;;;;;;;7.47;3.70;;;3.20;68.00;;;;;;5013096;28;20058;-79
2021/11/10 10:36:23;;;;;;;6.72;3.40;;;3.00;68.60;;;;;;5013227;28;20018;-80
2021/11/10 10:38:53;;;;;;;13.77;5.70;;;2.80;69.10;;;;;;5013282;28;20029;-79
2021/11/10 10:41:26;;;;;;;16.33;4.50;;;2.70;69.70;;;;;;5013515;28;20104;-79
2021/11/10 10:43:54;;;;;;;8.95;3.55;;;2.70;70.30;;;;;;5013262;28;20137;-79
2021/11/10 10:46:29;;;;;;;7.35;3.22;;;2.60;70.70;;;;;;5013274;28;20096;-79
2021/11/10 10:49:17;;;;;;;8.40;3.70;;;2.40;71.00;;;;;;5013194;28;20160;-79
2021/11/10 10:51:47;;;;;;;13.00;3.53;;;2.30;71.30;;;;;;5012676;28;20153;-79
2021/11/10 10:54:13;;;;;;;8.07;3.17;;;2.30;71.70;;;;;;5013151;28;20037;-79
2021/11/10 10:56:42;;;;;;;9.10;3.42;;;2.30;71.80;;;;;;5013050;28;20403;-80
2021/11/10 10:59:13;;;;;;;7.57;3.28;;;2.30;72.00;;;;;;5013253;28;20042;-79
2021/11/10 11:01:41;;;;;;;6.05;2.80;;;2.30;72.30;;;;;;5016172;28;20018;-79
2021/11/10 11:04:14;;;;;;;16.67;9.85;;;2.30;72.20;;;;;;5014086;28;20042;-81
2021/11/10 11:06:41;;;;;;;8.50;3.95;;;2.30;72.20;;;;;;5013351;28;20022;-79
2021/11/10 11:09:25;;;;;;;10.88;4.47;;;2.20;72.50;;;;;;5012906;28;20029;-79
2021/11/10 11:12:18;;;;;;;8.60;3.30;;;2.20;72.00;;;;;;5013877;28;20033;-78
2021/11/10 11:15:04;;;;;;;10.20;4.18;;;2.20;72.00;;;;;;5013824;28;20041;-79
2021/11/10 11:17:36;;;;;;;10.48;4.82;;;2.10;72.70;;;;;;5012634;28;20187;-80
2021/11/10 11:20:23;;;;;;;13.35;4.53;;;2.20;73.30;;;;;;5012937;28;20037;-80
2021/11/10 11:22:56;;;;;;;9.00;3.80;;;2.20;73.40;;;;;;5011944;28;20160;-79
2021/11/10 11:25:28;;;;;;;9.10;3.03;;;2.20;73.20;;;;;;5012738;28;20600;-79
2021/11/10 11:28:10;;;;;;;7.97;3.47;;;2.10;73.10;;;;;;5012937;28;20092;-80
2021/11/10 11:30:37;;;;;;;9.05;3.83;;;2.10;73.00;;;;;;5012671;28;20041;-78
2021/11/10 11:33:08;;;;;;;4.97;2.97;;;2.20;72.80;;;;;;5012684;28;20068;-78
2021/11/10 11:35:45;;;;;;;8.75;3.55;;;2.10;72.40;;;;;;5012451;28;20022;-81
2021/11/10 11:38:15;;;;;;;5.47;3.30;;;2.10;72.20;;;;;;5012554;28;20018;-81
2021/11/10 11:40:42;;;;;;;8.00;3.53;;;2.00;72.40;;;;;;5012506;28;20033;-80
2021/11/10 11:43:11;;;;;;;9.73;2.75;;;2.00;72.40;;;;;;5012829;28;20026;-79
2021/11/10 11:45:41;;;;;;;9.90;2.92;;;2.00;72.20;;;;;;5012855;28;20399;-79
2021/11/10 11:48:08;;;;;;;7.20;4.40;;;2.00;71.90;;;;;;5013365;28;20207;-79
2021/11/10 11:50:38;;;;;;;5.18;2.88;;;2.00;71.80;;;;;;5012661;28;20418;-79
2021/11/10 11:53:04;;;;;;;5.70;3.65;;;2.00;71.90;;;;;;5014237;28;20034;-80
2021/11/10 11:55:37;;;;;;;5.43;3.40;;;2.00;71.50;;;;;;5013802;28;20026;-79
2021/11/10 11:58:13;;;;;;;7.00;2.50;;;2.00;71.00;;;;;;5013952;28;20044;-79
2021/11/10 12:00:42;;;;;;;7.93;3.15;;;2.00;71.20;;;;;;4995871;28;20108;-79
2021/11/10 12:03:26;;;;;;;9.15;3.60;;;2.10;71.40;;;;;;5013844;28;20353;-80
2021/11/10 12:06:01;;;;;;;4.70;3.00;;;2.00;71.40;;;;;;5015867;28;20030;-79
2021/11/10 12:08:46;;;;;;;7.78;2.78;;;2.00;71.10;;;;;;5016325;28;20022;-80
2021/11/10 12:11:34;;;;;;;5.57;2.50;;;2.00;71.30;;;;;;5019414;28;20030;-78
2021/11/10 12:14:12;;;;;;;5.38;2.38;;;1.90;71.20;;;;;;5012142;28;20034;-79
2021/11/10 12:16:51;;;;;;;5.72;3.55;;;1.80;71.20;;;;;;5015529;28;20026;-79
2021/11/10 12:19:21;;;;;;;6.55;2.80;;;1.80;71.20;;;;;;5014639;28;20022;-80
2021/11/10 12:21:52;;;;;;;6.13;2.58;;;1.80;71.00;;;;;;5015369;28;20478;-80
2021/11/10 12:24:39;;;;;;;9.85;3.38;;;1.80;71.50;;;;;;5015265;28;20034;-78
2021/11/10 12:27:13;;;;;;;5.95;4.00;;;1.80;70.80;;;;;;5015863;28;20030;-79
2021/11/10 12:29:50;;;;;;;16.52;3.42;;;1.70;70.70;;;;;;5015786;28;20018;-78
2021/11/10 12:32:23;;;;;;;;;;;1.70;70.80;;;;;;5018511;28;20026;-78
2021/11/10 12:34:52;;;;;;;7.30;3.60;;;1.70;70.90;;;;;;5018875;28;19905;-81
2021/11/10 12:37:31;;;;;;;8.55;2.85;;;1.70;70.90;;;;;;4998124;28;20076;-77
2021/11/10 12:40:18;;;;;;;10.00;4.18;;;1.70;70.80;;;;;;5015916;28;20562;-81
2021/11/10 12:42:45;;;;;;;;;;;1.70;71.20;;;;;;5015939;28;20034;-81
2021/11/10 12:45:15;;;;;;;8.02;4.28;;;1.70;71.20;;;;;;5014196;28;19949;-78
2021/11/10 12:47:46;;;;;;;8.43;3.85;;;1.70;71.70;;;;;;5015153;28;20590;-79
2021/11/10 12:50:30;;;;;;;16.25;4.20;;;1.70;71.90;;;;;;5015424;28;20033;-78
2021/11/10 12:52:57;;;;;;;7.43;3.80;;;1.70;72.10;;;;;;5015061;28;20037;-77
2021/11/10 12:55:27;;;;;;;6.00;4.68;;;1.70;72.00;;;;;;5015295;28;20483;-81